Etusivu
METAR-TAF:

METAR-TAF

Lentoasemat :

Kramfors, Ruotsi

Leveyspiiri: 63-03N, Pituuspiiri: 017-46E, korkeus merenpinnasta: 10 m

Tämänhetkinen sää

Tämä raportti tehtiin 3 tuntia ja 8 minuuttia sitten, kello 05.50 UTC
Tuuli 4 kn lännestä
Lämpötila -1°C
Kosteus 86%
Ilmanpaine 1042 hPa
Näkyvyys 10 km tai enemmän
Pilvistä 1200 ft:n korkeudessa
lumijyväsiä

METAR: ESNK 190550Z 28004KT 9999 SG OVC012 M01/M03 Q1042

Aika: 09:58 (08:58 UTC)

Sääennuste

Tämä raportti tehtiin 3 tuntia ja 28 minuuttia sitten, kello 05.30 UTC
Ennuste voimassa 19. päivästä klo 06 UTC - 19. päivään klo 10 UTC
Tuuli 3 kn luoteesta
Näkyvyys 10 km tai enemmän
Pilvistä 1200 ft:n korkeudessa
Todennäköisyys 40%
19. päivästä klo 06 UTC - 19. päivään klo 10 UTC
Hajonneita pilviä 900 ft:n korkeudessa

TAF: ESNK 190530Z 1906/1910 32003KT 9999 OVC012 PROB40 1906/1910 BKN009

Säähavainnot ja -ennusteet yli 4000 lentoasemalta (METAR- ja TAF-raportit).

Käytössä olevat sääasemat on merkitty karttaan keltaisilla ja punaisilla pisteillä.

Aseta hiiri pisteen päälle nähdäksesi sääaseman nimen.

Klikkaa sitten nähdäksesi säähavainnot ja -ennusteet.

Kartan vaihtaminen: klikkaa mustalla rastilla varustettuja vihreitä pisteitä, niin voit zoomata sisään; viivalla varustettua vihreää pistettä, niin voit zoomata ulos tai vihreitä nuolia, niin pääset viereisille kartoille.


METAR-TAF: